createdAt,value
2018-12-31T00:00:58.934Z,4.57
2018-12-31T00:15:50.826Z,4.54
2018-12-31T00:30:57.718Z,4.53
2018-12-31T00:45:51.117Z,4.53
2018-12-31T01:00:52.113Z,4.50
2018-12-31T01:15:51.514Z,4.48
2018-12-31T01:30:51.444Z,4.45
2018-12-31T01:45:51.729Z,4.41
2018-12-31T02:00:51.191Z,4.32
2018-12-31T02:15:51.158Z,4.30
2018-12-31T02:30:50.557Z,4.34
2018-12-31T02:45:57.053Z,4.31
2018-12-31T03:00:55.830Z,4.28
2018-12-31T03:15:51.334Z,4.22
2018-12-31T03:30:53.144Z,4.17
2018-12-31T03:45:49.708Z,4.16
2018-12-31T04:00:51.028Z,4.12
2018-12-31T04:15:52.951Z,4.13
2018-12-31T04:30:53.357Z,4.12
2018-12-31T04:45:50.723Z,4.12
2018-12-31T05:00:50.046Z,4.13
2018-12-31T05:15:51.689Z,4.16
2018-12-31T05:30:51.031Z,4.16
2018-12-31T05:45:51.010Z,4.10
2018-12-31T06:00:50.387Z,4.12
2018-12-31T06:15:51.302Z,4.01
2018-12-31T06:30:51.210Z,3.92
2018-12-31T06:45:51.116Z,3.84
2018-12-31T07:00:51.018Z,3.92
2018-12-31T07:15:51.472Z,4.12
2018-12-31T07:30:51.259Z,4.21
2018-12-31T07:45:51.212Z,4.54
2018-12-31T08:00:51.137Z,4.87
2018-12-31T08:15:50.660Z,4.96
2018-12-31T08:30:51.407Z,5.46
2018-12-31T08:45:57.382Z,5.70
2018-12-31T09:00:51.218Z,5.91
2018-12-31T09:15:51.621Z,6.03
2018-12-31T09:30:51.583Z,5.98
2018-12-31T09:45:52.010Z,6.01
2018-12-31T10:00:53.900Z,6.00
2018-12-31T10:15:50.840Z,6.03
2018-12-31T10:30:50.769Z,6.01
2018-12-31T10:45:57.935Z,6.07
2018-12-31T11:00:51.562Z,6.06
2018-12-31T11:15:50.965Z,6.13
2018-12-31T11:30:51.749Z,6.25
2018-12-31T11:45:50.793Z,6.47
2018-12-31T12:00:50.827Z,6.64
2018-12-31T12:15:51.694Z,6.66
2018-12-31T12:30:53.636Z,6.54
2018-12-31T12:45:51.626Z,6.24
2018-12-31T13:00:51.382Z,6.07
2018-12-31T13:15:51.435Z,5.99
2018-12-31T13:30:51.254Z,5.92
2018-12-31T13:45:51.826Z,5.81
2018-12-31T14:00:56.955Z,5.76
2018-12-31T14:15:51.573Z,5.67
2018-12-31T14:30:51.488Z,5.55
2018-12-31T14:45:51.016Z,5.41
2018-12-31T15:00:57.693Z,5.35
2018-12-31T15:15:49.778Z,5.18
2018-12-31T15:30:51.731Z,4.98
2018-12-31T15:45:50.543Z,4.88
2018-12-31T16:00:51.533Z,4.82
2018-12-31T16:15:52.997Z,4.81
2018-12-31T16:30:50.917Z,4.81
2018-12-31T16:45:50.401Z,4.81
2018-12-31T17:00:50.743Z,4.80
2018-12-31T17:15:51.207Z,4.82
2018-12-31T17:30:51.050Z,4.79
2018-12-31T17:45:51.465Z,4.77
2018-12-31T18:00:50.955Z,4.71
2018-12-31T18:15:57.598Z,4.67
2018-12-31T18:30:51.263Z,4.67
2018-12-31T18:45:51.164Z,4.71
2018-12-31T19:00:51.095Z,4.70
2018-12-31T19:15:51.462Z,4.69
2018-12-31T19:30:51.445Z,4.71
2018-12-31T19:45:51.353Z,4.66
2018-12-31T20:00:51.326Z,4.62
2018-12-31T20:15:52.048Z,4.59
2018-12-31T20:30:51.763Z,4.58
2018-12-31T20:45:51.434Z,4.65
2018-12-31T21:00:51.349Z,4.57
2018-12-31T21:15:52.843Z,4.54
2018-12-31T21:30:50.774Z,4.47
2018-12-31T21:45:49.716Z,4.29
2018-12-31T22:00:51.552Z,3.83
2018-12-31T22:15:50.988Z,3.78
2018-12-31T22:30:51.031Z,3.47
2018-12-31T22:45:50.918Z,3.30
2018-12-31T23:00:51.367Z,3.38
2018-12-31T23:15:53.203Z,3.35
2018-12-31T23:30:54.182Z,3.07
2018-12-31T23:45:51.595Z,2.56
